createdAt,value
2022-09-12T00:00:25.359Z,8.61
2022-09-12T00:01:25.387Z,8.78
2022-09-12T00:02:25.413Z,8.94
2022-09-12T00:03:25.367Z,8.94
2022-09-12T00:04:25.374Z,8.78
2022-09-12T00:05:25.365Z,8.78
2022-09-12T00:06:25.396Z,8.61
2022-09-12T00:07:25.375Z,8.78
2022-09-12T00:08:25.375Z,9.06
2022-09-12T00:09:25.375Z,8.78
2022-09-12T00:10:25.375Z,9.06
2022-09-12T00:11:25.371Z,8.78
2022-09-12T00:12:25.372Z,8.94
2022-09-12T00:13:25.378Z,9.06
2022-09-12T00:14:25.373Z,8.78
2022-09-12T00:15:25.378Z,8.94
2022-09-12T00:16:25.435Z,8.94
2022-09-12T00:17:25.387Z,8.94
2022-09-12T00:18:25.396Z,8.78
2022-09-12T00:19:25.391Z,8.94
2022-09-12T00:20:25.404Z,8.78
2022-09-12T00:21:25.399Z,8.78
2022-09-12T00:22:25.422Z,8.61
2022-09-12T00:23:25.399Z,8.78
2022-09-12T00:24:25.395Z,8.94
2022-09-12T00:25:25.398Z,8.78
2022-09-12T00:26:25.402Z,8.94
2022-09-12T00:27:25.406Z,8.5
2022-09-12T00:28:25.401Z,8.78
2022-09-12T00:29:25.396Z,8.5
2022-09-12T00:30:25.403Z,8.61
2022-09-12T00:31:25.444Z,8.39
2022-09-12T00:32:25.404Z,8.5
2022-09-12T00:33:25.401Z,8.39
2022-09-12T00:34:25.407Z,8.28
2022-09-12T00:35:25.414Z,8.39
2022-09-12T00:36:25.416Z,8.28
2022-09-12T00:37:25.417Z,8.5
2022-09-12T00:38:25.439Z,8.39
2022-09-12T00:39:25.416Z,8.5
2022-09-12T00:40:25.418Z,8.39
2022-09-12T00:41:25.429Z,8.61
2022-09-12T00:42:25.423Z,8.39
2022-09-12T00:43:25.429Z,8.39
2022-09-12T00:44:25.425Z,8.61
2022-09-12T00:45:25.477Z,8.5
2022-09-12T00:46:25.432Z,8.39
2022-09-12T00:47:25.425Z,8.39
2022-09-12T00:48:25.427Z,8.39
2022-09-12T00:49:25.433Z,8.11
2022-09-12T00:50:25.432Z,8.39
2022-09-12T00:51:25.448Z,8.28
2022-09-12T00:52:25.435Z,7.78
2022-09-12T00:53:25.433Z,8.39
2022-09-12T00:54:25.466Z,8.39
2022-09-12T00:55:25.441Z,8.39
2022-09-12T00:56:25.452Z,8.11
2022-09-12T00:57:25.452Z,8.61
2022-09-12T00:58:25.451Z,8.5
2022-09-12T00:59:25.437Z,8.61
2022-09-12T01:00:25.441Z,8.39
2022-09-12T01:01:27.360Z,8.39
2022-09-12T01:02:25.505Z,8.11
2022-09-12T01:03:25.451Z,7.78
2022-09-12T01:04:25.448Z,8.39
2022-09-12T01:05:25.449Z,8.39
2022-09-12T01:06:25.452Z,8.5
2022-09-12T01:07:25.457Z,8.61
2022-09-12T01:08:25.448Z,8.78
2022-09-12T01:09:25.478Z,8.5
2022-09-12T01:10:25.482Z,8.28
2022-09-12T01:11:25.460Z,8.5
2022-09-12T01:12:25.460Z,8.39
2022-09-12T01:13:25.461Z,8.39
2022-09-12T01:14:25.459Z,8.11
2022-09-12T01:15:25.481Z,8.39
2022-09-12T01:16:25.530Z,8.39
2022-09-12T01:17:25.466Z,8.61
2022-09-12T01:18:25.466Z,8.78
2022-09-12T01:19:25.460Z,8.61
2022-09-12T01:20:25.471Z,8.78
2022-09-12T01:21:25.472Z,8.61
2022-09-12T01:22:25.468Z,8.5
2022-09-12T01:23:25.469Z,8.39
2022-09-12T01:24:25.472Z,8.5
2022-09-12T01:25:25.473Z,8.5
2022-09-12T01:26:25.505Z,8.61
2022-09-12T01:27:25.483Z,8.78
2022-09-12T01:28:25.480Z,8.39
2022-09-12T01:29:25.474Z,8.61
2022-09-12T01:30:25.479Z,8.78
2022-09-12T01:31:25.478Z,8.61
2022-09-12T01:32:25.523Z,8.5
2022-09-12T01:33:25.490Z,8.78
2022-09-12T01:34:25.479Z,8.61
2022-09-12T01:35:25.476Z,8.61
2022-09-12T01:36:25.491Z,8.28
2022-09-12T01:37:25.491Z,8.61
2022-09-12T01:38:25.490Z,8.5
2022-09-12T01:39:25.489Z,8.11
2022-09-12T01:40:25.490Z,8.39
2022-09-12T01:41:25.485Z,8.39
2022-09-12T01:42:25.524Z,8.39
2022-09-12T01:43:25.499Z,8.28
2022-09-12T01:44:25.501Z,8.11
2022-09-12T01:45:25.549Z,8.39
2022-09-12T01:46:25.500Z,8.11
2022-09-12T01:47:25.506Z,8.39
2022-09-12T01:48:25.507Z,8.39
2022-09-12T01:49:25.508Z,8.11
2022-09-12T01:50:25.510Z,8.39
2022-09-12T01:51:25.516Z,8.11
2022-09-12T01:52:25.508Z,8.39
2022-09-12T01:53:25.511Z,8.39
2022-09-12T01:54:25.518Z,8.39
2022-09-12T01:55:25.509Z,8.39
2022-09-12T01:56:25.530Z,8.39
2022-09-12T01:57:25.520Z,8.39
2022-09-12T01:58:25.561Z,8.39
2022-09-12T01:59:25.529Z,8.11
2022-09-12T02:00:25.525Z,8.39
2022-09-12T02:01:25.553Z,8.39
2022-09-12T02:02:25.587Z,8.28
2022-09-12T02:03:25.538Z,8.5
2022-09-12T02:04:25.528Z,8.28
2022-09-12T02:05:25.534Z,8.39
2022-09-12T02:06:25.531Z,8.5
2022-09-12T02:07:25.535Z,8.39
2022-09-12T02:08:25.537Z,8.39
2022-09-12T02:09:25.535Z,8.5
2022-09-12T02:10:28.119Z,8.39
2022-09-12T02:11:25.541Z,8.61
2022-09-12T02:12:25.547Z,8.39
2022-09-12T02:13:25.544Z,8.39
2022-09-12T02:14:25.579Z,8.39
2022-09-12T02:15:25.545Z,8.11
2022-09-12T02:16:25.568Z,8.28
2022-09-12T02:17:25.547Z,8.11
2022-09-12T02:18:25.560Z,8.11
2022-09-12T02:19:25.553Z,7.94
2022-09-12T02:20:46.736Z,7.94
2022-09-12T02:21:25.559Z,7.94
2022-09-12T02:22:25.579Z,7.94
2022-09-12T02:23:25.560Z,7.78
2022-09-12T02:24:25.560Z,7.94
2022-09-12T02:25:25.563Z,8.11
2022-09-12T02:26:25.559Z,7.94
2022-09-12T02:27:25.565Z,7.94
2022-09-12T02:28:25.560Z,7.94
2022-09-12T02:29:25.565Z,8.11
2022-09-12T02:30:25.631Z,7.94
2022-09-12T02:31:25.568Z,8.11
2022-09-12T02:32:25.575Z,8.28
2022-09-12T02:33:25.572Z,8.39
2022-09-12T02:34:25.566Z,8.28
2022-09-12T02:35:25.569Z,8.39
2022-09-12T02:36:25.577Z,8.11
2022-09-12T02:37:25.579Z,8.39
2022-09-12T02:38:25.570Z,8.39
2022-09-12T02:39:25.582Z,8.39
2022-09-12T02:40:25.684Z,8.39
2022-09-12T02:41:25.584Z,8.11
2022-09-12T02:42:25.580Z,8.39
2022-09-12T02:43:25.586Z,8.39
2022-09-12T02:44:25.592Z,8.28
2022-09-12T02:45:25.594Z,8.28
2022-09-12T02:46:25.613Z,8.11
2022-09-12T02:47:25.584Z,8.39
2022-09-12T02:48:25.589Z,8.28
2022-09-12T02:49:25.591Z,8.28
2022-09-12T02:50:25.601Z,8.28
2022-09-12T02:51:25.594Z,8.39
2022-09-12T02:52:25.600Z,8.28
2022-09-12T02:53:25.592Z,8.5
2022-09-12T02:54:25.596Z,8.28
2022-09-12T02:55:25.596Z,7.94
2022-09-12T02:56:25.597Z,8.39
2022-09-12T02:57:25.597Z,8.61
2022-09-12T02:58:25.597Z,8.39
2022-09-12T02:59:25.597Z,8.28
2022-09-12T03:00:25.609Z,8.11
2022-09-12T03:01:25.634Z,8.61
2022-09-12T03:02:25.657Z,8.61
2022-09-12T03:03:25.601Z,8.61
2022-09-12T03:04:25.599Z,8.61
2022-09-12T03:05:25.603Z,8.61
2022-09-12T03:06:25.603Z,8.61
2022-09-12T03:07:25.600Z,8.5
2022-09-12T03:08:25.614Z,8.61
2022-09-12T03:09:25.607Z,8.78
2022-09-12T03:10:25.607Z,8.61
2022-09-12T03:11:25.600Z,8.61
2022-09-12T03:12:25.610Z,8.78
2022-09-12T03:13:25.600Z,8.78
2022-09-12T03:14:25.608Z,8.5
2022-09-12T03:15:25.609Z,8.61
2022-09-12T03:16:25.643Z,8.78
2022-09-12T03:17:25.606Z,8.78
2022-09-12T03:18:25.644Z,8.78
2022-09-12T03:19:25.627Z,8.61
2022-09-12T03:20:25.615Z,8.61
2022-09-12T03:21:25.619Z,8.61
2022-09-12T03:22:25.617Z,8.78
2022-09-12T03:23:25.619Z,8.78
2022-09-12T03:24:25.610Z,8.94
2022-09-12T03:25:25.618Z,8.61
2022-09-12T03:26:25.626Z,8.78
2022-09-12T03:27:25.616Z,8.78
2022-09-12T03:28:25.615Z,8.78
2022-09-12T03:29:25.625Z,8.78
2022-09-12T03:30:25.677Z,8.78
2022-09-12T03:31:25.630Z,8.94
2022-09-12T03:32:25.622Z,9.06
2022-09-12T03:33:25.625Z,8.78
2022-09-12T03:34:25.650Z,9.06
2022-09-12T03:35:25.629Z,8.61
2022-09-12T03:36:25.634Z,8.78
2022-09-12T03:37:25.623Z,8.61
2022-09-12T03:38:25.628Z,8.78
2022-09-12T03:39:25.623Z,8.78
2022-09-12T03:40:25.649Z,8.94
2022-09-12T03:41:25.630Z,8.94
2022-09-12T03:42:25.640Z,8.94
2022-09-12T03:43:25.628Z,8.78
2022-09-12T03:44:25.629Z,8.78
2022-09-12T03:45:25.705Z,8.94
2022-09-12T03:46:25.636Z,8.78
2022-09-12T03:47:25.635Z,8.94
2022-09-12T03:48:25.634Z,8.94
2022-09-12T03:49:25.647Z,8.78
2022-09-12T03:50:25.659Z,8.78
2022-09-12T03:51:25.637Z,9.22
2022-09-12T03:52:25.643Z,9.06
2022-09-12T03:53:25.633Z,8.78
2022-09-12T03:54:25.638Z,8.94
2022-09-12T03:55:25.634Z,8.78
2022-09-12T03:56:25.638Z,8.78
2022-09-12T03:57:25.642Z,8.94
2022-09-12T03:58:25.646Z,9.06
2022-09-12T03:59:25.641Z,9.06
2022-09-12T04:00:25.645Z,8.94
2022-09-12T04:01:25.659Z,9.22
2022-09-12T04:02:25.691Z,8.94
2022-09-12T04:03:25.643Z,9.06
2022-09-12T04:04:25.644Z,8.94
2022-09-12T04:05:25.643Z,9.06
2022-09-12T04:06:25.670Z,8.78
2022-09-12T04:07:25.639Z,8.94
2022-09-12T04:08:25.644Z,9.06
2022-09-12T04:09:25.649Z,9.06
2022-09-12T04:10:25.643Z,9.06
2022-09-12T04:11:25.641Z,9.22
2022-09-12T04:12:25.640Z,8.78
2022-09-12T04:13:25.642Z,8.94
2022-09-12T04:14:25.647Z,9.06
2022-09-12T04:15:25.644Z,9.22
2022-09-12T04:16:25.685Z,9.22
2022-09-12T04:17:25.655Z,9.22
2022-09-12T04:18:25.659Z,9.06
2022-09-12T04:19:25.655Z,8.94
2022-09-12T04:20:25.656Z,9.06
2022-09-12T04:21:25.654Z,8.94
2022-09-12T04:22:25.690Z,8.94
2022-09-12T04:23:25.667Z,9.22
2022-09-12T04:24:25.674Z,9.06
2022-09-12T04:25:25.672Z,9.22
2022-09-12T04:26:25.671Z,8.94
2022-09-12T04:27:25.670Z,9.06
2022-09-12T04:28:25.681Z,9.22
2022-09-12T04:29:25.683Z,9.22
2022-09-12T04:30:25.695Z,8.94
2022-09-12T04:31:25.682Z,8.94
2022-09-12T04:32:25.674Z,9.06
2022-09-12T04:33:25.675Z,8.78
2022-09-12T04:34:25.683Z,8.94
2022-09-12T04:35:25.673Z,9.22
2022-09-12T04:36:25.683Z,9.22
2022-09-12T04:37:25.684Z,8.94
2022-09-12T04:38:25.707Z,9.22
2022-09-12T04:39:25.683Z,9.22
2022-09-12T04:40:25.677Z,9.22
2022-09-12T04:41:25.681Z,9.22
2022-09-12T04:42:25.682Z,9.06
2022-09-12T04:43:25.694Z,8.94
2022-09-12T04:44:25.690Z,9.06
2022-09-12T04:45:25.694Z,9.22
2022-09-12T04:46:25.694Z,9.06
2022-09-12T04:47:25.697Z,9.06
2022-09-12T04:48:25.703Z,8.78
2022-09-12T04:49:25.698Z,8.61
2022-09-12T04:50:25.704Z,9.06
2022-09-12T04:51:25.696Z,9.06
2022-09-12T04:52:25.701Z,9.5
2022-09-12T04:53:25.702Z,9.22
2022-09-12T04:54:25.740Z,9.39
2022-09-12T04:55:25.719Z,9.22
2022-09-12T04:56:25.721Z,9.22
2022-09-12T04:57:25.717Z,8.61
2022-09-12T04:58:25.708Z,9.22
2022-09-12T04:59:25.724Z,9.22
2022-09-12T05:00:25.715Z,9.39
2022-09-12T05:01:25.756Z,9.06
2022-09-12T05:02:25.755Z,9.5
2022-09-12T05:03:25.713Z,9.06
2022-09-12T05:04:25.727Z,9.22
2022-09-12T05:05:25.724Z,9.5
2022-09-12T05:06:25.729Z,9.39
2022-09-12T05:07:25.725Z,9.06
2022-09-12T05:08:25.727Z,8.94
2022-09-12T05:09:25.727Z,9.22
2022-09-12T05:10:25.766Z,9.22
2022-09-12T05:11:33.106Z,9.39
2022-09-12T05:12:25.731Z,9.22
2022-09-12T05:13:25.728Z,9.39
2022-09-12T05:14:25.737Z,9.39
2022-09-12T05:15:25.731Z,9.39
2022-09-12T05:16:25.832Z,9.5
2022-09-12T05:17:25.730Z,8.94
2022-09-12T05:18:25.735Z,9.39
2022-09-12T05:19:25.738Z,9.39
2022-09-12T05:20:25.741Z,9.39
2022-09-12T05:21:25.739Z,9.39
2022-09-12T05:22:25.739Z,9.39
2022-09-12T05:23:25.746Z,9.22
2022-09-12T05:24:25.744Z,8.94
2022-09-12T05:25:25.740Z,9.5
2022-09-12T05:26:25.764Z,9.39
2022-09-12T05:27:25.773Z,9.22
2022-09-12T05:28:25.736Z,9.22
2022-09-12T05:29:25.752Z,9.5
2022-09-12T05:30:25.804Z,9.39
2022-09-12T05:31:25.746Z,9.5
2022-09-12T05:32:25.757Z,9.67
2022-09-12T05:33:25.745Z,9.5
2022-09-12T05:34:25.744Z,9.67
2022-09-12T05:35:25.749Z,9.67
2022-09-12T05:36:25.755Z,9.5
2022-09-12T05:37:25.753Z,9.78
2022-09-12T05:38:25.758Z,9.67
2022-09-12T05:39:25.753Z,9.39
2022-09-12T05:40:25.756Z,9.5
2022-09-12T05:41:25.765Z,9.78
2022-09-12T05:42:25.781Z,9.78
2022-09-12T05:43:25.761Z,9.5
2022-09-12T05:44:25.757Z,9.5
2022-09-12T05:45:25.760Z,9.78
2022-09-12T05:46:25.778Z,9.78
2022-09-12T05:47:25.767Z,9.94
2022-09-12T05:48:25.767Z,10.11
2022-09-12T05:49:25.767Z,9.78
2022-09-12T05:50:25.766Z,9.94
2022-09-12T05:51:25.770Z,9.94
2022-09-12T05:52:25.775Z,9.78
2022-09-12T05:53:25.770Z,9.67
2022-09-12T05:54:29.569Z,9.94
2022-09-12T05:55:25.780Z,9.78
2022-09-12T05:56:25.771Z,9.94
2022-09-12T05:57:25.773Z,9.78
2022-09-12T05:58:25.803Z,10.11
2022-09-12T05:59:25.773Z,10.11
2022-09-12T06:00:27.573Z,10.11
2022-09-12T06:01:25.816Z,9.94
2022-09-12T06:02:25.852Z,10.11
2022-09-12T06:03:25.786Z,10.22
2022-09-12T06:04:25.781Z,10.11
2022-09-12T06:05:25.789Z,9.94
2022-09-12T06:06:25.789Z,9.94
2022-09-12T06:07:25.790Z,9.94
2022-09-12T06:08:25.792Z,10.11
2022-09-12T06:09:25.797Z,10.11
2022-09-12T06:10:25.789Z,9.94
2022-09-12T06:11:25.794Z,9.94
2022-09-12T06:12:25.795Z,9.94
2022-09-12T06:13:25.797Z,10.11
2022-09-12T06:14:25.820Z,10.11
2022-09-12T06:15:25.811Z,10.11
2022-09-12T06:16:25.827Z,9.94
2022-09-12T06:17:25.804Z,10.11
2022-09-12T06:18:25.809Z,10.11
2022-09-12T06:19:25.812Z,9.94
2022-09-12T06:20:25.807Z,10.11
2022-09-12T06:21:25.810Z,10.11
2022-09-12T06:22:25.807Z,10.11
2022-09-12T06:23:25.811Z,9.78
2022-09-12T06:24:25.816Z,10.11
2022-09-12T06:25:25.813Z,10.11
2022-09-12T06:26:25.842Z,10.11
2022-09-12T06:27:25.808Z,9.94
2022-09-12T06:28:25.812Z,10.11
2022-09-12T06:29:25.814Z,10.11
2022-09-12T06:30:26.004Z,10.11
2022-09-12T06:31:25.819Z,10.11
2022-09-12T06:32:25.825Z,10.11
2022-09-12T06:33:25.812Z,10.39
2022-09-12T06:34:25.815Z,10.56
2022-09-12T06:35:25.818Z,10.56
2022-09-12T06:36:25.825Z,10.56
2022-09-12T06:37:25.822Z,10.56
2022-09-12T06:38:25.826Z,10.56
2022-09-12T06:39:25.836Z,10.39
2022-09-12T06:40:25.869Z,10.56
2022-09-12T06:41:25.832Z,10.56
2022-09-12T06:42:25.833Z,10.39
2022-09-12T06:43:25.833Z,10.83
2022-09-12T06:44:25.837Z,10.83
2022-09-12T06:45:25.834Z,10.67
2022-09-12T06:46:25.866Z,10.56
2022-09-12T06:47:25.831Z,10.67
2022-09-12T06:48:25.837Z,10.83
2022-09-12T06:49:25.835Z,11
2022-09-12T06:50:25.829Z,11
2022-09-12T06:51:25.834Z,11
2022-09-12T06:52:25.835Z,10.83
2022-09-12T06:53:25.841Z,11
2022-09-12T06:54:25.842Z,11
2022-09-12T06:55:27.799Z,11.11
2022-09-12T06:56:25.840Z,10.83
2022-09-12T06:57:25.844Z,11.11
2022-09-12T06:58:25.839Z,11
2022-09-12T06:59:25.843Z,11.11
2022-09-12T07:00:25.846Z,11.11
2022-09-12T07:01:25.866Z,11.28
2022-09-12T07:02:25.923Z,11
2022-09-12T07:03:25.850Z,11
2022-09-12T07:04:25.850Z,11.11
2022-09-12T07:05:25.847Z,11.28
2022-09-12T07:06:25.860Z,11.11
2022-09-12T07:07:25.848Z,11
2022-09-12T07:08:25.847Z,11.28
2022-09-12T07:09:25.848Z,11.11
2022-09-12T07:10:25.848Z,11.11
2022-09-12T07:11:25.848Z,11.28
2022-09-12T07:12:25.861Z,11.11
2022-09-12T07:13:25.860Z,11.11
2022-09-12T07:14:25.857Z,11.11
2022-09-12T07:15:25.864Z,10.67
2022-09-12T07:16:25.901Z,10.67
2022-09-12T07:17:25.858Z,10.83
2022-09-12T07:18:25.887Z,11.28
2022-09-12T07:19:25.871Z,11.11
2022-09-12T07:20:25.871Z,11.44
2022-09-12T07:21:25.873Z,11.44
2022-09-12T07:22:25.877Z,11.11
2022-09-12T07:23:25.865Z,11.28
2022-09-12T07:24:25.871Z,11.44
2022-09-12T07:25:25.873Z,11.44
2022-09-12T07:26:25.875Z,11.44
2022-09-12T07:27:25.881Z,11.44
2022-09-12T07:28:25.873Z,11.11
2022-09-12T07:29:36.354Z,11.28
2022-09-12T07:30:25.990Z,11.28
2022-09-12T07:31:25.877Z,11.44
2022-09-12T07:32:25.881Z,11.61
2022-09-12T07:33:25.883Z,11.44
2022-09-12T07:34:25.904Z,11
2022-09-12T07:35:25.877Z,11.44
2022-09-12T07:36:25.874Z,11
2022-09-12T07:37:25.885Z,11
2022-09-12T07:38:25.880Z,10.83
2022-09-12T07:39:25.880Z,10.67
2022-09-12T07:40:25.889Z,11
2022-09-12T07:41:25.890Z,10.83
2022-09-12T07:42:25.887Z,11.11
2022-09-12T07:43:25.887Z,11.28
2022-09-12T07:44:25.893Z,11
2022-09-12T07:45:25.901Z,11.11
2022-09-12T07:46:25.885Z,11.28
2022-09-12T07:47:25.896Z,11
2022-09-12T07:48:27.716Z,10.83
2022-09-12T07:49:25.902Z,10.39
2022-09-12T07:50:25.924Z,10.67
2022-09-12T07:51:25.901Z,10.22
2022-09-12T07:52:25.899Z,10.56
2022-09-12T07:53:25.896Z,10.56
2022-09-12T07:54:25.897Z,10.39
2022-09-12T07:55:25.901Z,10.83
2022-09-12T07:56:29.611Z,11.11
2022-09-12T07:57:25.905Z,11.44
2022-09-12T07:58:25.907Z,11.94
2022-09-12T07:59:48.783Z,11.83
2022-09-12T08:00:25.903Z,11.94
2022-09-12T08:01:25.987Z,12.28
2022-09-12T08:02:25.970Z,12.44
2022-09-12T08:03:25.905Z,12.44
2022-09-12T08:04:25.911Z,12.56
2022-09-12T08:05:25.920Z,12.72
2022-09-12T08:06:25.965Z,12.28
2022-09-12T08:07:25.912Z,12.28
2022-09-12T08:08:25.918Z,12.56
2022-09-12T08:09:25.917Z,12.56
2022-09-12T08:10:25.917Z,12.72
2022-09-12T08:11:25.921Z,12.72
2022-09-12T08:12:25.916Z,12.28
2022-09-12T08:13:25.916Z,12.28
2022-09-12T08:14:25.916Z,12.28
2022-09-12T08:15:25.920Z,12.44
2022-09-12T08:16:25.924Z,12.89
2022-09-12T08:17:25.912Z,12.89
2022-09-12T08:18:25.915Z,12.89
2022-09-12T08:19:25.915Z,13.17
2022-09-12T08:20:28.340Z,13.06
2022-09-12T08:21:25.923Z,13.06
2022-09-12T08:22:25.942Z,12.72
2022-09-12T08:23:25.921Z,12.44
2022-09-12T08:24:25.921Z,12.56
2022-09-12T08:25:25.928Z,12.72
2022-09-12T08:26:25.922Z,12.56
2022-09-12T08:27:25.926Z,12.28
2022-09-12T08:28:25.924Z,12.28
2022-09-12T08:29:25.917Z,12.72
2022-09-12T08:30:25.924Z,13.17
2022-09-12T08:31:25.924Z,13.06
2022-09-12T08:32:25.922Z,12.89
2022-09-12T08:33:25.925Z,13.17
2022-09-12T08:34:25.922Z,13.17
2022-09-12T08:35:25.929Z,13.33
2022-09-12T08:36:25.927Z,13.17
2022-09-12T08:37:25.931Z,12.72
2022-09-12T08:38:25.953Z,12.56
2022-09-12T08:39:25.919Z,12.72
2022-09-12T08:40:25.925Z,12.89
2022-09-12T08:41:25.928Z,13.67
2022-09-12T08:42:25.938Z,13.67
2022-09-12T08:43:25.940Z,13.06
2022-09-12T08:44:25.923Z,13.06
2022-09-12T08:45:25.935Z,12.44
2022-09-12T08:46:25.953Z,12.28
2022-09-12T08:47:25.940Z,11.83
2022-09-12T08:48:25.941Z,11.83
2022-09-12T08:49:25.929Z,12.28
2022-09-12T08:50:25.933Z,12.11
2022-09-12T08:51:25.935Z,12.11
2022-09-12T08:52:25.930Z,11.83
2022-09-12T08:53:25.938Z,11.72
2022-09-12T08:54:25.956Z,11.83
2022-09-12T08:55:25.933Z,12.28
2022-09-12T08:56:29.694Z,12.11
2022-09-12T08:57:25.929Z,12.11
2022-09-12T08:58:25.924Z,11.94
2022-09-12T08:59:25.933Z,11.83
2022-09-12T09:00:25.935Z,12.89
2022-09-12T09:01:25.954Z,12.72
2022-09-12T09:02:26.016Z,12.72
2022-09-12T09:03:25.928Z,13.5
2022-09-12T09:04:28.723Z,13.67
2022-09-12T09:05:25.934Z,14.06
2022-09-12T09:06:25.936Z,14.06
2022-09-12T09:07:25.942Z,13.94
2022-09-12T09:08:25.929Z,13.5
2022-09-12T09:09:25.937Z,12.72
2022-09-12T09:10:25.958Z,12.56
2022-09-12T09:11:25.938Z,12.72
2022-09-12T09:12:25.935Z,12.89
2022-09-12T09:13:25.935Z,13.5
2022-09-12T09:14:25.942Z,13.33
2022-09-12T09:15:25.977Z,13.5
2022-09-12T09:16:25.944Z,13.94
2022-09-12T09:17:25.946Z,14.06
2022-09-12T09:18:25.957Z,14.56
2022-09-12T09:19:25.960Z,14.06
2022-09-12T09:20:25.943Z,13.5
2022-09-12T09:21:25.946Z,13.06
2022-09-12T09:22:25.952Z,13.67
2022-09-12T09:23:25.955Z,13.17
2022-09-12T09:24:25.953Z,12.78
2022-09-12T09:25:25.949Z,12.78
2022-09-12T09:26:25.982Z,13.72
2022-09-12T09:27:39.691Z,13.11
2022-09-12T09:28:25.956Z,12.94
2022-09-12T09:29:25.960Z,13.67
2022-09-12T09:30:25.964Z,13.67
2022-09-12T09:31:26.023Z,13.72
2022-09-12T09:32:25.964Z,12.78
2022-09-12T09:33:25.960Z,12.78
2022-09-12T09:34:25.963Z,13.39
2022-09-12T09:35:25.960Z,13.22
2022-09-12T09:36:25.963Z,13.22
2022-09-12T09:37:25.969Z,13
2022-09-12T09:38:25.958Z,12.94
2022-09-12T09:39:25.959Z,12.94
2022-09-12T09:40:25.971Z,13.39
2022-09-12T09:41:25.963Z,13.11
2022-09-12T09:42:25.977Z,14
2022-09-12T09:43:25.973Z,14.28
2022-09-12T09:44:25.968Z,14
2022-09-12T09:45:25.974Z,13.39
2022-09-12T09:46:26.045Z,13.22
2022-09-12T09:47:25.972Z,13.22
2022-09-12T09:48:25.975Z,13.67
2022-09-12T09:49:25.983Z,13.39
2022-09-12T09:50:25.980Z,13.56
2022-09-12T09:51:25.978Z,14.28
2022-09-12T09:52:25.980Z,14.44
2022-09-12T09:53:25.981Z,13.83
2022-09-12T09:54:25.989Z,14.61
2022-09-12T09:55:25.979Z,14.78
2022-09-12T09:56:25.986Z,14.44
2022-09-12T09:57:25.980Z,14.44
2022-09-12T09:58:26.012Z,14.61
2022-09-12T09:59:26.001Z,14.28
2022-09-12T10:00:25.988Z,14.28
2022-09-12T10:01:26.025Z,14.61
2022-09-12T10:02:26.016Z,14.78
2022-09-12T10:03:25.989Z,14.44
2022-09-12T10:04:25.991Z,14.89
2022-09-12T10:05:25.997Z,14.61
2022-09-12T10:06:25.993Z,14.78
2022-09-12T10:07:25.994Z,15.28
2022-09-12T10:08:25.994Z,15.44
2022-09-12T10:09:26.002Z,15.44
2022-09-12T10:10:25.999Z,15.89
2022-09-12T10:11:25.999Z,15.89
2022-09-12T10:12:25.993Z,15.28
2022-09-12T10:13:25.997Z,15.89
2022-09-12T10:14:26.030Z,16.56
2022-09-12T10:15:26.000Z,16.22
2022-09-12T10:16:26.000Z,16.06
2022-09-12T10:17:26.005Z,15.44
2022-09-12T10:18:26.005Z,14.61
2022-09-12T10:19:26.015Z,15.17
2022-09-12T10:20:26.012Z,15.28
2022-09-12T10:21:26.004Z,15.44
2022-09-12T10:22:26.011Z,15.06
2022-09-12T10:23:26.017Z,14.78
2022-09-12T10:24:26.021Z,15.17
2022-09-12T10:25:26.014Z,15.17
2022-09-12T10:26:26.016Z,15.17
2022-09-12T10:27:26.031Z,15.61
2022-09-12T10:28:26.030Z,15.78
2022-09-12T10:29:26.024Z,16.39
2022-09-12T10:30:26.161Z,17
2022-09-12T10:31:26.028Z,16.89
2022-09-12T10:32:30.450Z,16.72
2022-09-12T10:33:26.033Z,17
2022-09-12T10:34:26.025Z,17.33
2022-09-12T10:35:26.031Z,16.89
2022-09-12T10:36:26.026Z,16.72
2022-09-12T10:37:26.031Z,16.39
2022-09-12T10:38:26.034Z,16.06
2022-09-12T10:39:26.035Z,17
2022-09-12T10:40:26.036Z,17.5
2022-09-12T10:41:26.040Z,17.5
2022-09-12T10:42:26.047Z,17.17
2022-09-12T10:43:26.043Z,17.94
2022-09-12T10:44:26.041Z,17.94
2022-09-12T10:45:26.051Z,17.83
2022-09-12T10:46:26.106Z,17.5
2022-09-12T10:47:26.044Z,17.5
2022-09-12T10:48:26.045Z,17.5
2022-09-12T10:49:26.047Z,16.89
2022-09-12T10:50:26.043Z,17.5
2022-09-12T10:51:26.061Z,17.5
2022-09-12T10:52:26.050Z,17.5
2022-09-12T10:53:26.187Z,17.33
2022-09-12T10:54:26.058Z,17.5
2022-09-12T10:55:26.052Z,18.17
2022-09-12T10:56:26.047Z,18.94
2022-09-12T10:57:26.048Z,18.94
2022-09-12T10:58:26.058Z,18.44
2022-09-12T10:59:26.065Z,17.94
2022-09-12T11:00:26.053Z,18.28
2022-09-12T11:01:26.112Z,18.28
2022-09-12T11:02:26.120Z,18.44
2022-09-12T11:03:26.062Z,18.44
2022-09-12T11:04:26.062Z,18.28
2022-09-12T11:05:26.064Z,18.78
2022-09-12T11:06:26.060Z,18.94
2022-09-12T11:07:26.070Z,17.94
2022-09-12T11:08:26.061Z,17.94
2022-09-12T11:09:26.070Z,17.94
2022-09-12T11:10:26.067Z,17.94
2022-09-12T11:11:26.068Z,18.61
2022-09-12T11:12:26.069Z,19.06
2022-09-12T11:13:26.081Z,19.44
2022-09-12T11:14:26.074Z,18.78
2022-09-12T11:15:26.083Z,18.44
2022-09-12T11:16:26.074Z,18.61
2022-09-12T11:17:26.077Z,17.94
2022-09-12T11:18:26.103Z,17.94
2022-09-12T11:19:26.078Z,18.44
2022-09-12T11:20:26.080Z,18.44
2022-09-12T11:21:26.086Z,19.06
2022-09-12T11:22:29.898Z,19.56
2022-09-12T11:23:26.082Z,19.78
2022-09-12T11:24:26.092Z,19.06
2022-09-12T11:25:26.089Z,18.44
2022-09-12T11:26:26.089Z,18.28
2022-09-12T11:27:26.102Z,17.94
2022-09-12T11:28:26.097Z,18.44
2022-09-12T11:29:26.097Z,18.28
2022-09-12T11:30:26.093Z,18.28
2022-09-12T11:31:26.106Z,18.28
2022-09-12T11:32:26.099Z,18.61
2022-09-12T11:33:26.098Z,18.28
2022-09-12T11:34:26.123Z,19.28
2022-09-12T11:35:26.100Z,19.44
2022-09-12T11:36:26.098Z,19.56
2022-09-12T11:37:26.101Z,18.94
2022-09-12T11:38:26.095Z,18.94
2022-09-12T11:39:26.108Z,18.78
2022-09-12T11:40:26.122Z,18.44
2022-09-12T11:41:26.106Z,18.11
2022-09-12T11:42:26.106Z,18.5
2022-09-12T11:43:26.112Z,18.5
2022-09-12T11:44:26.112Z,18.67
2022-09-12T11:45:26.107Z,18.83
2022-09-12T11:46:26.164Z,18.94
2022-09-12T11:47:26.099Z,18.67
2022-09-12T11:48:26.107Z,18.67
2022-09-12T11:49:26.104Z,18.33
2022-09-12T11:50:26.134Z,18.94
2022-09-12T11:51:26.113Z,19.11
2022-09-12T11:52:26.114Z,19.33
2022-09-12T11:53:26.115Z,19.83
2022-09-12T11:54:26.124Z,20.22
2022-09-12T11:55:26.120Z,20.56
2022-09-12T11:56:26.118Z,21.39
2022-09-12T11:57:26.122Z,21.22
2022-09-12T11:58:26.120Z,21.56
2022-09-12T11:59:26.115Z,21.56
2022-09-12T12:00:26.121Z,21.06
2022-09-12T12:01:26.124Z,19.61
2022-09-12T12:02:26.192Z,19.33
2022-09-12T12:03:26.139Z,19.94
2022-09-12T12:04:26.130Z,20.22
2022-09-12T12:05:26.123Z,20.56
2022-09-12T12:06:26.155Z,20.11
2022-09-12T12:07:26.130Z,20.56
2022-09-12T12:08:26.142Z,20.11
2022-09-12T12:09:26.144Z,20.39
2022-09-12T12:10:26.148Z,21.06
2022-09-12T12:11:26.132Z,21.06
2022-09-12T12:12:26.145Z,20.56
2022-09-12T12:13:26.141Z,20.56
2022-09-12T12:14:26.133Z,20.39
2022-09-12T12:15:26.145Z,19.94
2022-09-12T12:16:26.140Z,20.11
2022-09-12T12:17:26.149Z,20.22
2022-09-12T12:18:26.149Z,19.94
2022-09-12T12:19:26.147Z,20.72
2022-09-12T12:20:26.148Z,21.22
2022-09-12T12:21:26.152Z,20.39
2022-09-12T12:22:26.183Z,20.22
2022-09-12T12:23:26.155Z,20.56
2022-09-12T12:24:26.152Z,20.56
2022-09-12T12:25:29.574Z,20.11
2022-09-12T12:26:26.154Z,19.94
2022-09-12T12:27:26.158Z,20.11
2022-09-12T12:28:26.155Z,20.39
2022-09-12T12:29:26.159Z,20.11
2022-09-12T12:30:26.154Z,20.39
2022-09-12T12:31:26.224Z,20.83
2022-09-12T12:32:26.158Z,21.06
2022-09-12T12:33:26.161Z,21.56
2022-09-12T12:34:26.164Z,21.06
2022-09-12T12:35:26.171Z,20.83
2022-09-12T12:36:26.167Z,21.06
2022-09-12T12:37:26.168Z,21.56
2022-09-12T12:38:26.198Z,22.06
2022-09-12T12:39:26.173Z,22.61
2022-09-12T12:40:26.172Z,22.06
2022-09-12T12:41:26.174Z,21.56
2022-09-12T12:42:26.172Z,21.06
2022-09-12T12:43:26.178Z,21.56
2022-09-12T12:44:26.174Z,21.22
2022-09-12T12:45:26.178Z,20.72
2022-09-12T12:46:26.210Z,20.56
2022-09-12T12:47:26.173Z,20.56
2022-09-12T12:48:26.178Z,20.56
2022-09-12T12:49:26.180Z,20.56
2022-09-12T12:50:26.182Z,20.39
2022-09-12T12:51:26.174Z,20.56
2022-09-12T12:52:26.177Z,20.83
2022-09-12T12:53:26.182Z,21.72
2022-09-12T12:54:26.195Z,21.72
2022-09-12T12:55:26.186Z,21.56
2022-09-12T12:56:26.183Z,21.06
2022-09-12T12:57:26.186Z,21.56
2022-09-12T12:58:26.189Z,22.39
2022-09-12T12:59:26.180Z,22.78
2022-09-12T13:00:26.186Z,23.11
2022-09-12T13:01:26.257Z,23.11
2022-09-12T13:02:26.261Z,22.61
2022-09-12T13:03:26.195Z,22.78
2022-09-12T13:04:26.189Z,22.78
2022-09-12T13:05:26.193Z,23.67
2022-09-12T13:06:26.205Z,22.94
2022-09-12T13:07:26.194Z,22.39
2022-09-12T13:08:26.190Z,22.61